sensor_id;sensor_type;location;lat;lon;timestamp;P1;durP1;ratioP1;P2;durP2;ratioP2
14732;SDS011;7457;50.960;6.830;2023-07-31T00:00:28;9.10;;;4.30;;
14732;SDS011;7457;50.960;6.830;2023-07-31T00:02:54;10.02;;;4.03;;
14732;SDS011;7457;50.960;6.830;2023-07-31T00:05:20;8.75;;;3.95;;
14732;SDS011;7457;50.960;6.830;2023-07-31T00:07:46;10.02;;;3.90;;
14732;SDS011;7457;50.960;6.830;2023-07-31T00:10:11;10.52;;;4.65;;
14732;SDS011;7457;50.960;6.830;2023-07-31T00:12:41;8.07;;;4.30;;
14732;SDS011;7457;50.960;6.830;2023-07-31T00:15:08;7.60;;;4.03;;
14732;SDS011;7457;50.960;6.830;2023-07-31T00:17:34;11.52;;;4.30;;
14732;SDS011;7457;50.960;6.830;2023-07-31T00:20:00;6.03;;;3.65;;
14732;SDS011;7457;50.960;6.830;2023-07-31T00:22:26;12.93;;;4.88;;
14732;SDS011;7457;50.960;6.830;2023-07-31T00:24:52;8.15;;;4.30;;
14732;SDS011;7457;50.960;6.830;2023-07-31T00:27:17;12.43;;;4.30;;
14732;SDS011;7457;50.960;6.830;2023-07-31T00:29:43;7.68;;;4.25;;
14732;SDS011;7457;50.960;6.830;2023-07-31T00:32:08;9.10;;;4.70;;
14732;SDS011;7457;50.960;6.830;2023-07-31T00:34:34;7.88;;;3.92;;
14732;SDS011;7457;50.960;6.830;2023-07-31T00:37:00;5.60;;;3.72;;
14732;SDS011;7457;50.960;6.830;2023-07-31T00:39:25;10.20;;;3.95;;
14732;SDS011;7457;50.960;6.830;2023-07-31T00:41:51;7.13;;;3.70;;
14732;SDS011;7457;50.960;6.830;2023-07-31T00:44:17;11.48;;;4.05;;
14732;SDS011;7457;50.960;6.830;2023-07-31T00:46:42;8.05;;;4.00;;
14732;SDS011;7457;50.960;6.830;2023-07-31T00:49:08;9.13;;;3.65;;
14732;SDS011;7457;50.960;6.830;2023-07-31T00:51:34;10.80;;;4.00;;
14732;SDS011;7457;50.960;6.830;2023-07-31T00:54:00;8.02;;;3.63;;
14732;SDS011;7457;50.960;6.830;2023-07-31T00:56:27;6.38;;;3.53;;
14732;SDS011;7457;50.960;6.830;2023-07-31T00:58:53;8.98;;;3.95;;
14732;SDS011;7457;50.960;6.830;2023-07-31T01:01:19;8.30;;;3.55;;
14732;SDS011;7457;50.960;6.830;2023-07-31T01:03:45;9.18;;;4.20;;
14732;SDS011;7457;50.960;6.830;2023-07-31T01:06:19;8.27;;;3.90;;
14732;SDS011;7457;50.960;6.830;2023-07-31T01:09:20;4.95;;;3.63;;
14732;SDS011;7457;50.960;6.830;2023-07-31T01:12:09;9.80;;;3.35;;
14732;SDS011;7457;50.960;6.830;2023-07-31T01:14:39;5.95;;;3.33;;
14732;SDS011;7457;50.960;6.830;2023-07-31T01:17:05;9.63;;;3.53;;
14732;SDS011;7457;50.960;6.830;2023-07-31T01:19:31;6.35;;;3.72;;
14732;SDS011;7457;50.960;6.830;2023-07-31T01:27:46;9.13;;;4.10;;
14732;SDS011;7457;50.960;6.830;2023-07-31T01:30:37;8.40;;;3.78;;
14732;SDS011;7457;50.960;6.830;2023-07-31T01:33:09;8.73;;;3.88;;
14732;SDS011;7457;50.960;6.830;2023-07-31T01:35:35;5.43;;;3.17;;
14732;SDS011;7457;50.960;6.830;2023-07-31T01:38:02;6.93;;;3.45;;
14732;SDS011;7457;50.960;6.830;2023-07-31T01:40:28;9.85;;;4.13;;
14732;SDS011;7457;50.960;6.830;2023-07-31T01:42:53;10.43;;;3.58;;
14732;SDS011;7457;50.960;6.830;2023-07-31T01:45:19;6.75;;;4.20;;
14732;SDS011;7457;50.960;6.830;2023-07-31T01:47:45;5.68;;;3.03;;
14732;SDS011;7457;50.960;6.830;2023-07-31T01:50:10;6.65;;;4.00;;
14732;SDS011;7457;50.960;6.830;2023-07-31T01:52:36;5.80;;;3.33;;
14732;SDS011;7457;50.960;6.830;2023-07-31T01:55:02;5.40;;;3.03;;
14732;SDS011;7457;50.960;6.830;2023-07-31T01:57:28;9.32;;;3.30;;
14732;SDS011;7457;50.960;6.830;2023-07-31T01:59:53;7.00;;;3.75;;
14732;SDS011;7457;50.960;6.830;2023-07-31T02:02:19;4.88;;;3.22;;
14732;SDS011;7457;50.960;6.830;2023-07-31T02:04:45;8.35;;;3.08;;
14732;SDS011;7457;50.960;6.830;2023-07-31T02:07:12;6.25;;;3.70;;
14732;SDS011;7457;50.960;6.830;2023-07-31T02:09:37;7.10;;;3.15;;
14732;SDS011;7457;50.960;6.830;2023-07-31T02:12:03;9.63;;;3.92;;
14732;SDS011;7457;50.960;6.830;2023-07-31T02:14:29;6.35;;;3.85;;
14732;SDS011;7457;50.960;6.830;2023-07-31T02:16:54;7.40;;;3.50;;
14732;SDS011;7457;50.960;6.830;2023-07-31T02:19:20;8.52;;;4.05;;
14732;SDS011;7457;50.960;6.830;2023-07-31T02:21:45;8.18;;;4.05;;
14732;SDS011;7457;50.960;6.830;2023-07-31T02:24:11;5.35;;;3.25;;
14732;SDS011;7457;50.960;6.830;2023-07-31T02:26:37;5.80;;;3.47;;
14732;SDS011;7457;50.960;6.830;2023-07-31T02:29:02;4.70;;;3.30;;
14732;SDS011;7457;50.960;6.830;2023-07-31T02:31:28;6.32;;;3.42;;
14732;SDS011;7457;50.960;6.830;2023-07-31T02:33:54;8.23;;;3.85;;
14732;SDS011;7457;50.960;6.830;2023-07-31T02:36:19;8.18;;;3.33;;
14732;SDS011;7457;50.960;6.830;2023-07-31T02:38:45;7.70;;;3.72;;
14732;SDS011;7457;50.960;6.830;2023-07-31T02:41:10;6.57;;;3.17;;
14732;SDS011;7457;50.960;6.830;2023-07-31T02:43:36;10.63;;;3.88;;
14732;SDS011;7457;50.960;6.830;2023-07-31T02:46:02;6.75;;;3.60;;
14732;SDS011;7457;50.960;6.830;2023-07-31T02:48:27;9.52;;;4.43;;
14732;SDS011;7457;50.960;6.830;2023-07-31T02:50:53;8.50;;;3.95;;
14732;SDS011;7457;50.960;6.830;2023-07-31T02:53:19;10.57;;;4.40;;
14732;SDS011;7457;50.960;6.830;2023-07-31T02:55:44;7.97;;;3.88;;
14732;SDS011;7457;50.960;6.830;2023-07-31T02:58:10;7.43;;;3.65;;
14732;SDS011;7457;50.960;6.830;2023-07-31T03:00:35;7.28;;;3.45;;
14732;SDS011;7457;50.960;6.830;2023-07-31T03:03:06;6.10;;;3.70;;
14732;SDS011;7457;50.960;6.830;2023-07-31T03:05:32;7.03;;;3.58;;
14732;SDS011;7457;50.960;6.830;2023-07-31T03:07:57;10.93;;;3.63;;
14732;SDS011;7457;50.960;6.830;2023-07-31T03:10:23;6.68;;;3.35;;
14732;SDS011;7457;50.960;6.830;2023-07-31T03:12:48;10.15;;;4.55;;
14732;SDS011;7457;50.960;6.830;2023-07-31T03:15:14;5.18;;;3.58;;
14732;SDS011;7457;50.960;6.830;2023-07-31T03:17:40;6.60;;;4.13;;
14732;SDS011;7457;50.960;6.830;2023-07-31T03:20:05;6.70;;;3.60;;
14732;SDS011;7457;50.960;6.830;2023-07-31T03:22:31;8.60;;;4.38;;
14732;SDS011;7457;50.960;6.830;2023-07-31T03:24:57;8.25;;;4.00;;
14732;SDS011;7457;50.960;6.830;2023-07-31T03:27:22;7.45;;;4.22;;
14732;SDS011;7457;50.960;6.830;2023-07-31T03:29:48;8.10;;;4.15;;
14732;SDS011;7457;50.960;6.830;2023-07-31T03:32:16;7.15;;;3.80;;
14732;SDS011;7457;50.960;6.830;2023-07-31T03:34:41;11.15;;;4.22;;
14732;SDS011;7457;50.960;6.830;2023-07-31T03:37:07;9.90;;;3.92;;
14732;SDS011;7457;50.960;6.830;2023-07-31T03:39:34;10.18;;;4.40;;
14732;SDS011;7457;50.960;6.830;2023-07-31T03:42:00;6.00;;;4.00;;
14732;SDS011;7457;50.960;6.830;2023-07-31T03:44:25;11.50;;;4.15;;
14732;SDS011;7457;50.960;6.830;2023-07-31T03:46:51;9.55;;;4.18;;
14732;SDS011;7457;50.960;6.830;2023-07-31T03:49:17;7.90;;;4.38;;
14732;SDS011;7457;50.960;6.830;2023-07-31T03:51:43;12.85;;;4.85;;
14732;SDS011;7457;50.960;6.830;2023-07-31T03:54:09;9.30;;;3.70;;
14732;SDS011;7457;50.960;6.830;2023-07-31T03:56:35;8.73;;;4.35;;
14732;SDS011;7457;50.960;6.830;2023-07-31T03:59:00;9.90;;;4.28;;
14732;SDS011;7457;50.960;6.830;2023-07-31T04:01:26;8.38;;;4.28;;
14732;SDS011;7457;50.960;6.830;2023-07-31T04:03:52;8.00;;;4.68;;
14732;SDS011;7457;50.960;6.830;2023-07-31T04:06:17;8.50;;;4.10;;
14732;SDS011;7457;50.960;6.830;2023-07-31T04:08:43;9.10;;;4.80;;
14732;SDS011;7457;50.960;6.830;2023-07-31T04:11:10;11.20;;;4.75;;
14732;SDS011;7457;50.960;6.830;2023-07-31T04:13:36;7.97;;;4.28;;
14732;SDS011;7457;50.960;6.830;2023-07-31T04:16:02;10.00;;;5.15;;
14732;SDS011;7457;50.960;6.830;2023-07-31T04:18:28;9.18;;;4.60;;
14732;SDS011;7457;50.960;6.830;2023-07-31T04:20:56;7.57;;;4.70;;
14732;SDS011;7457;50.960;6.830;2023-07-31T04:23:23;14.05;;;5.13;;
14732;SDS011;7457;50.960;6.830;2023-07-31T04:25:49;10.25;;;4.65;;
14732;SDS011;7457;50.960;6.830;2023-07-31T04:28:15;9.55;;;5.20;;
14732;SDS011;7457;50.960;6.830;2023-07-31T04:30:40;10.02;;;4.72;;
14732;SDS011;7457;50.960;6.830;2023-07-31T04:33:06;10.82;;;5.10;;
14732;SDS011;7457;50.960;6.830;2023-07-31T04:35:31;10.77;;;4.50;;
14732;SDS011;7457;50.960;6.830;2023-07-31T04:37:57;7.28;;;4.20;;
14732;SDS011;7457;50.960;6.830;2023-07-31T04:40:23;5.95;;;4.20;;
14732;SDS011;7457;50.960;6.830;2023-07-31T04:42:49;6.95;;;4.32;;
14732;SDS011;7457;50.960;6.830;2023-07-31T04:45:15;7.78;;;4.43;;
14732;SDS011;7457;50.960;6.830;2023-07-31T04:47:41;8.85;;;4.32;;
14732;SDS011;7457;50.960;6.830;2023-07-31T04:50:06;10.70;;;4.50;;
14732;SDS011;7457;50.960;6.830;2023-07-31T04:52:32;6.68;;;4.45;;
14732;SDS011;7457;50.960;6.830;2023-07-31T04:54:58;6.25;;;4.88;;
14732;SDS011;7457;50.960;6.830;2023-07-31T04:57:23;5.95;;;4.25;;
14732;SDS011;7457;50.960;6.830;2023-07-31T04:59:49;5.13;;;4.03;;
14732;SDS011;7457;50.960;6.830;2023-07-31T05:02:15;5.72;;;4.05;;
14732;SDS011;7457;50.960;6.830;2023-07-31T05:04:40;10.43;;;4.60;;
14732;SDS011;7457;50.960;6.830;2023-07-31T05:07:06;7.32;;;4.10;;
14732;SDS011;7457;50.960;6.830;2023-07-31T05:09:32;7.65;;;4.20;;
14732;SDS011;7457;50.960;6.830;2023-07-31T05:11:57;6.35;;;4.40;;
14732;SDS011;7457;50.960;6.830;2023-07-31T05:14:23;9.27;;;4.05;;
14732;SDS011;7457;50.960;6.830;2023-07-31T05:16:49;7.72;;;4.55;;
14732;SDS011;7457;50.960;6.830;2023-07-31T05:19:14;5.22;;;3.70;;
14732;SDS011;7457;50.960;6.830;2023-07-31T05:21:40;5.60;;;3.45;;
14732;SDS011;7457;50.960;6.830;2023-07-31T05:24:06;7.78;;;4.47;;
14732;SDS011;7457;50.960;6.830;2023-07-31T05:26:31;7.63;;;4.13;;
14732;SDS011;7457;50.960;6.830;2023-07-31T05:28:57;8.65;;;4.20;;
14732;SDS011;7457;50.960;6.830;2023-07-31T05:31:23;9.15;;;4.05;;
14732;SDS011;7457;50.960;6.830;2023-07-31T05:33:49;7.20;;;4.47;;
14732;SDS011;7457;50.960;6.830;2023-07-31T05:36:16;7.80;;;4.13;;
14732;SDS011;7457;50.960;6.830;2023-07-31T05:38:42;5.60;;;4.13;;
14732;SDS011;7457;50.960;6.830;2023-07-31T05:41:09;7.03;;;4.32;;
14732;SDS011;7457;50.960;6.830;2023-07-31T05:43:36;5.55;;;3.63;;
14732;SDS011;7457;50.960;6.830;2023-07-31T05:46:02;8.25;;;4.38;;
14732;SDS011;7457;50.960;6.830;2023-07-31T05:48:27;7.53;;;4.22;;
14732;SDS011;7457;50.960;6.830;2023-07-31T05:50:53;6.32;;;4.20;;
14732;SDS011;7457;50.960;6.830;2023-07-31T05:53:19;7.93;;;3.80;;
14732;SDS011;7457;50.960;6.830;2023-07-31T05:55:44;9.50;;;4.18;;
14732;SDS011;7457;50.960;6.830;2023-07-31T05:58:10;6.53;;;3.83;;
14732;SDS011;7457;50.960;6.830;2023-07-31T06:00:35;9.07;;;4.00;;
14732;SDS011;7457;50.960;6.830;2023-07-31T06:03:01;9.70;;;4.35;;
14732;SDS011;7457;50.960;6.830;2023-07-31T06:05:27;7.47;;;3.90;;
14732;SDS011;7457;50.960;6.830;2023-07-31T06:07:55;7.57;;;4.28;;
14732;SDS011;7457;50.960;6.830;2023-07-31T06:10:21;7.22;;;4.28;;
14732;SDS011;7457;50.960;6.830;2023-07-31T06:12:46;8.77;;;4.82;;
14732;SDS011;7457;50.960;6.830;2023-07-31T06:15:12;6.57;;;4.18;;
14732;SDS011;7457;50.960;6.830;2023-07-31T06:17:38;5.95;;;4.07;;
14732;SDS011;7457;50.960;6.830;2023-07-31T06:20:04;8.30;;;4.03;;
14732;SDS011;7457;50.960;6.830;2023-07-31T06:22:31;6.90;;;4.32;;
14732;SDS011;7457;50.960;6.830;2023-07-31T06:24:57;5.72;;;3.80;;
14732;SDS011;7457;50.960;6.830;2023-07-31T06:27:23;8.82;;;4.05;;
14732;SDS011;7457;50.960;6.830;2023-07-31T06:29:48;8.02;;;3.90;;
14732;SDS011;7457;50.960;6.830;2023-07-31T06:32:14;7.60;;;4.13;;
14732;SDS011;7457;50.960;6.830;2023-07-31T06:34:40;3.80;;;3.35;;
14732;SDS011;7457;50.960;6.830;2023-07-31T06:37:05;6.30;;;4.22;;
14732;SDS011;7457;50.960;6.830;2023-07-31T06:39:31;5.65;;;3.85;;
14732;SDS011;7457;50.960;6.830;2023-07-31T06:41:57;8.60;;;4.57;;
14732;SDS011;7457;50.960;6.830;2023-07-31T06:44:22;5.63;;;4.15;;
14732;SDS011;7457;50.960;6.830;2023-07-31T06:46:48;5.43;;;4.00;;
14732;SDS011;7457;50.960;6.830;2023-07-31T06:49:13;6.82;;;4.22;;
14732;SDS011;7457;50.960;6.830;2023-07-31T06:51:42;7.38;;;3.78;;
14732;SDS011;7457;50.960;6.830;2023-07-31T06:54:09;5.43;;;3.90;;
14732;SDS011;7457;50.960;6.830;2023-07-31T06:56:34;8.30;;;4.05;;
14732;SDS011;7457;50.960;6.830;2023-07-31T06:59:00;4.68;;;3.60;;
14732;SDS011;7457;50.960;6.830;2023-07-31T07:01:26;5.78;;;4.10;;
14732;SDS011;7457;50.960;6.830;2023-07-31T07:03:52;6.57;;;3.92;;
14732;SDS011;7457;50.960;6.830;2023-07-31T07:06:18;5.22;;;3.75;;
14732;SDS011;7457;50.960;6.830;2023-07-31T07:08:44;7.50;;;4.03;;
14732;SDS011;7457;50.960;6.830;2023-07-31T07:11:10;5.95;;;3.67;;
14732;SDS011;7457;50.960;6.830;2023-07-31T07:13:36;8.82;;;3.90;;
14732;SDS011;7457;50.960;6.830;2023-07-31T07:16:01;7.35;;;3.58;;
14732;SDS011;7457;50.960;6.830;2023-07-31T07:18:27;5.93;;;4.05;;
14732;SDS011;7457;50.960;6.830;2023-07-31T07:20:53;5.85;;;3.92;;
14732;SDS011;7457;50.960;6.830;2023-07-31T07:23:20;5.50;;;3.67;;
14732;SDS011;7457;50.960;6.830;2023-07-31T07:25:46;6.75;;;3.80;;
14732;SDS011;7457;50.960;6.830;2023-07-31T07:28:12;6.57;;;3.80;;
14732;SDS011;7457;50.960;6.830;2023-07-31T07:30:39;9.00;;;3.72;;
14732;SDS011;7457;50.960;6.830;2023-07-31T07:33:04;9.30;;;4.22;;
14732;SDS011;7457;50.960;6.830;2023-07-31T07:35:34;10.45;;;4.43;;
14732;SDS011;7457;50.960;6.830;2023-07-31T07:38:01;6.55;;;3.60;;
14732;SDS011;7457;50.960;6.830;2023-07-31T07:40:27;10.45;;;3.83;;
14732;SDS011;7457;50.960;6.830;2023-07-31T07:42:53;6.88;;;3.45;;
14732;SDS011;7457;50.960;6.830;2023-07-31T07:45:18;6.13;;;3.90;;
14732;SDS011;7457;50.960;6.830;2023-07-31T07:47:44;6.40;;;3.75;;
14732;SDS011;7457;50.960;6.830;2023-07-31T07:50:09;7.30;;;3.50;;
14732;SDS011;7457;50.960;6.830;2023-07-31T07:52:35;7.63;;;3.63;;
14732;SDS011;7457;50.960;6.830;2023-07-31T07:55:00;5.97;;;3.40;;
14732;SDS011;7457;50.960;6.830;2023-07-31T07:57:26;5.25;;;3.33;;
14732;SDS011;7457;50.960;6.830;2023-07-31T07:59:52;4.85;;;3.00;;
14732;SDS011;7457;50.960;6.830;2023-07-31T08:02:18;7.55;;;3.55;;
14732;SDS011;7457;50.960;6.830;2023-07-31T08:04:44;4.15;;;3.45;;
14732;SDS011;7457;50.960;6.830;2023-07-31T08:07:12;8.95;;;3.38;;
14732;SDS011;7457;50.960;6.830;2023-07-31T08:09:38;7.28;;;3.58;;
14732;SDS011;7457;50.960;6.830;2023-07-31T08:12:04;6.00;;;2.90;;
14732;SDS011;7457;50.960;6.830;2023-07-31T08:14:31;5.20;;;3.20;;
14732;SDS011;7457;50.960;6.830;2023-07-31T08:16:56;4.60;;;2.95;;
14732;SDS011;7457;50.960;6.830;2023-07-31T08:19:22;5.43;;;2.97;;
14732;SDS011;7457;50.960;6.830;2023-07-31T08:21:48;5.65;;;3.30;;
14732;SDS011;7457;50.960;6.830;2023-07-31T08:24:13;4.57;;;2.97;;
14732;SDS011;7457;50.960;6.830;2023-07-31T08:26:39;7.45;;;3.40;;
14732;SDS011;7457;50.960;6.830;2023-07-31T08:29:05;8.32;;;3.28;;
14732;SDS011;7457;50.960;6.830;2023-07-31T08:31:31;6.45;;;3.03;;
14732;SDS011;7457;50.960;6.830;2023-07-31T08:33:56;5.57;;;2.75;;
14732;SDS011;7457;50.960;6.830;2023-07-31T08:36:22;6.70;;;3.10;;
14732;SDS011;7457;50.960;6.830;2023-07-31T08:38:48;5.72;;;3.35;;
14732;SDS011;7457;50.960;6.830;2023-07-31T08:41:14;5.57;;;3.63;;
14732;SDS011;7457;50.960;6.830;2023-07-31T08:43:42;6.82;;;3.35;;
14732;SDS011;7457;50.960;6.830;2023-07-31T08:46:10;5.40;;;2.80;;
14732;SDS011;7457;50.960;6.830;2023-07-31T08:48:36;3.90;;;2.83;;
14732;SDS011;7457;50.960;6.830;2023-07-31T08:51:03;5.65;;;2.75;;
14732;SDS011;7457;50.960;6.830;2023-07-31T08:53:29;3.13;;;2.70;;
14732;SDS011;7457;50.960;6.830;2023-07-31T08:55:55;5.75;;;3.55;;
14732;SDS011;7457;50.960;6.830;2023-07-31T08:58:23;3.90;;;2.83;;
14732;SDS011;7457;50.960;6.830;2023-07-31T09:00:50;4.03;;;2.65;;
14732;SDS011;7457;50.960;6.830;2023-07-31T09:03:17;5.65;;;3.00;;
14732;SDS011;7457;50.960;6.830;2023-07-31T09:05:44;6.05;;;3.15;;
14732;SDS011;7457;50.960;6.830;2023-07-31T09:08:12;4.47;;;2.65;;
14732;SDS011;7457;50.960;6.830;2023-07-31T09:10:42;5.30;;;2.92;;
14732;SDS011;7457;50.960;6.830;2023-07-31T09:13:09;4.93;;;3.08;;
14732;SDS011;7457;50.960;6.830;2023-07-31T09:15:35;5.55;;;2.83;;
14732;SDS011;7457;50.960;6.830;2023-07-31T09:18:02;3.70;;;2.65;;
14732;SDS011;7457;50.960;6.830;2023-07-31T09:20:30;6.60;;;2.80;;
14732;SDS011;7457;50.960;6.830;2023-07-31T09:22:57;4.57;;;2.78;;
14732;SDS011;7457;50.960;6.830;2023-07-31T09:25:32;5.72;;;3.10;;
14732;SDS011;7457;50.960;6.830;2023-07-31T09:27:58;8.73;;;3.00;;
14732;SDS011;7457;50.960;6.830;2023-07-31T09:30:25;5.90;;;3.13;;
14732;SDS011;7457;50.960;6.830;2023-07-31T09:32:59;3.63;;;2.38;;
14732;SDS011;7457;50.960;6.830;2023-07-31T09:35:30;4.43;;;2.60;;
14732;SDS011;7457;50.960;6.830;2023-07-31T09:38:03;4.28;;;2.47;;
14732;SDS011;7457;50.960;6.830;2023-07-31T09:40:31;3.28;;;2.50;;
14732;SDS011;7457;50.960;6.830;2023-07-31T09:42:59;3.83;;;2.28;;
14732;SDS011;7457;50.960;6.830;2023-07-31T09:45:25;5.85;;;2.85;;
14732;SDS011;7457;50.960;6.830;2023-07-31T09:47:51;5.63;;;2.80;;
14732;SDS011;7457;50.960;6.830;2023-07-31T09:50:17;4.72;;;2.40;;
14732;SDS011;7457;50.960;6.830;2023-07-31T09:52:45;3.95;;;2.55;;
14732;SDS011;7457;50.960;6.830;2023-07-31T09:55:10;4.65;;;2.58;;
14732;SDS011;7457;50.960;6.830;2023-07-31T09:57:38;5.15;;;2.55;;
14732;SDS011;7457;50.960;6.830;2023-07-31T10:00:06;3.10;;;2.47;;
14732;SDS011;7457;50.960;6.830;2023-07-31T10:02:34;4.20;;;2.83;;
14732;SDS011;7457;50.960;6.830;2023-07-31T10:05:02;4.90;;;2.80;;
14732;SDS011;7457;50.960;6.830;2023-07-31T10:07:29;7.47;;;2.70;;
14732;SDS011;7457;50.960;6.830;2023-07-31T10:09:59;3.88;;;2.90;;
14732;SDS011;7457;50.960;6.830;2023-07-31T10:12:26;4.00;;;2.92;;
14732;SDS011;7457;50.960;6.830;2023-07-31T10:14:54;7.72;;;2.90;;
14732;SDS011;7457;50.960;6.830;2023-07-31T10:17:21;3.88;;;2.67;;
14732;SDS011;7457;50.960;6.830;2023-07-31T10:19:50;4.38;;;2.90;;
14732;SDS011;7457;50.960;6.830;2023-07-31T10:22:18;4.25;;;2.92;;
14732;SDS011;7457;50.960;6.830;2023-07-31T10:24:45;8.40;;;2.90;;
14732;SDS011;7457;50.960;6.830;2023-07-31T10:27:12;3.20;;;2.50;;
14732;SDS011;7457;50.960;6.830;2023-07-31T10:29:38;4.22;;;2.58;;
14732;SDS011;7457;50.960;6.830;2023-07-31T10:32:05;6.72;;;2.75;;
14732;SDS011;7457;50.960;6.830;2023-07-31T10:34:35;3.53;;;2.65;;
14732;SDS011;7457;50.960;6.830;2023-07-31T10:40:24;2.92;;;2.33;;
14732;SDS011;7457;50.960;6.830;2023-07-31T10:42:54;5.95;;;3.08;;
14732;SDS011;7457;50.960;6.830;2023-07-31T10:45:36;3.15;;;2.13;;
14732;SDS011;7457;50.960;6.830;2023-07-31T10:48:13;2.67;;;2.28;;
14732;SDS011;7457;50.960;6.830;2023-07-31T10:50:50;7.97;;;2.88;;
14732;SDS011;7457;50.960;6.830;2023-07-31T10:53:23;2.70;;;2.20;;
14732;SDS011;7457;50.960;6.830;2023-07-31T10:55:59;3.72;;;2.60;;
14732;SDS011;7457;50.960;6.830;2023-07-31T10:58:35;2.25;;;2.03;;
14732;SDS011;7457;50.960;6.830;2023-07-31T11:01:02;3.03;;;2.10;;
14732;SDS011;7457;50.960;6.830;2023-07-31T11:03:48;1.92;;;1.73;;
14732;SDS011;7457;50.960;6.830;2023-07-31T11:06:19;2.95;;;1.80;;
14732;SDS011;7457;50.960;6.830;2023-07-31T11:08:45;2.20;;;1.50;;
14732;SDS011;7457;50.960;6.830;2023-07-31T11:11:14;2.17;;;1.35;;
14732;SDS011;7457;50.960;6.830;2023-07-31T11:16:10;2.08;;;1.50;;
14732;SDS011;7457;50.960;6.830;2023-07-31T11:18:38;1.75;;;1.25;;
14732;SDS011;7457;50.960;6.830;2023-07-31T11:21:17;0.80;;;0.80;;
14732;SDS011;7457;50.960;6.830;2023-07-31T11:23:48;1.95;;;0.60;;
14732;SDS011;7457;50.960;6.830;2023-07-31T11:26:16;1.92;;;0.98;;
14732;SDS011;7457;50.960;6.830;2023-07-31T11:28:42;1.42;;;1.23;;
14732;SDS011;7457;50.960;6.830;2023-07-31T11:31:11;1.20;;;0.90;;
14732;SDS011;7457;50.960;6.830;2023-07-31T11:33:37;2.60;;;1.08;;
14732;SDS011;7457;50.960;6.830;2023-07-31T11:36:02;1.42;;;0.85;;
14732;SDS011;7457;50.960;6.830;2023-07-31T11:38:29;1.70;;;1.20;;
14732;SDS011;7457;50.960;6.830;2023-07-31T11:40:58;1.58;;;1.02;;
14732;SDS011;7457;50.960;6.830;2023-07-31T11:43:26;1.05;;;0.85;;
14732;SDS011;7457;50.960;6.830;2023-07-31T11:45:52;1.27;;;1.02;;
14732;SDS011;7457;50.960;6.830;2023-07-31T11:48:22;1.65;;;0.82;;
14732;SDS011;7457;50.960;6.830;2023-07-31T11:50:49;1.00;;;0.80;;
14732;SDS011;7457;50.960;6.830;2023-07-31T11:53:17;1.08;;;0.77;;
14732;SDS011;7457;50.960;6.830;2023-07-31T11:55:46;3.42;;;1.00;;
14732;SDS011;7457;50.960;6.830;2023-07-31T11:58:12;3.78;;;1.05;;
14732;SDS011;7457;50.960;6.830;2023-07-31T12:00:40;0.80;;;0.80;;
14732;SDS011;7457;50.960;6.830;2023-07-31T12:03:06;1.08;;;0.85;;
14732;SDS011;7457;50.960;6.830;2023-07-31T12:05:32;1.48;;;1.23;;
14732;SDS011;7457;50.960;6.830;2023-07-31T12:07:57;1.90;;;1.40;;
14732;SDS011;7457;50.960;6.830;2023-07-31T12:10:30;1.48;;;1.30;;
14732;SDS011;7457;50.960;6.830;2023-07-31T12:15:44;2.90;;;1.63;;
14732;SDS011;7457;50.960;6.830;2023-07-31T12:18:11;2.40;;;1.40;;
14732;SDS011;7457;50.960;6.830;2023-07-31T12:20:42;1.35;;;1.25;;
14732;SDS011;7457;50.960;6.830;2023-07-31T12:23:16;2.28;;;1.85;;
14732;SDS011;7457;50.960;6.830;2023-07-31T12:25:43;3.35;;;1.80;;
14732;SDS011;7457;50.960;6.830;2023-07-31T12:28:09;2.55;;;1.92;;
14732;SDS011;7457;50.960;6.830;2023-07-31T12:30:38;3.10;;;1.88;;
14732;SDS011;7457;50.960;6.830;2023-07-31T12:33:06;2.70;;;2.08;;
14732;SDS011;7457;50.960;6.830;2023-07-31T12:35:38;2.15;;;1.92;;
14732;SDS011;7457;50.960;6.830;2023-07-31T12:38:06;2.20;;;2.00;;
14732;SDS011;7457;50.960;6.830;2023-07-31T12:40:32;3.75;;;2.50;;
14732;SDS011;7457;50.960;6.830;2023-07-31T12:42:58;5.20;;;2.08;;
14732;SDS011;7457;50.960;6.830;2023-07-31T12:45:27;3.05;;;2.42;;
14732;SDS011;7457;50.960;6.830;2023-07-31T12:47:53;2.20;;;1.77;;
14732;SDS011;7457;50.960;6.830;2023-07-31T12:50:18;2.47;;;2.10;;
14732;SDS011;7457;50.960;6.830;2023-07-31T12:52:44;5.00;;;2.55;;
14732;SDS011;7457;50.960;6.830;2023-07-31T12:55:10;3.65;;;2.42;;
14732;SDS011;7457;50.960;6.830;2023-07-31T12:57:36;3.10;;;2.80;;
14732;SDS011;7457;50.960;6.830;2023-07-31T13:00:02;3.03;;;2.50;;
14732;SDS011;7457;50.960;6.830;2023-07-31T13:02:28;2.78;;;2.40;;
14732;SDS011;7457;50.960;6.830;2023-07-31T13:04:54;4.00;;;2.70;;
14732;SDS011;7457;50.960;6.830;2023-07-31T13:07:21;3.05;;;2.20;;
14732;SDS011;7457;50.960;6.830;2023-07-31T13:09:47;2.40;;;2.13;;
14732;SDS011;7457;50.960;6.830;2023-07-31T13:12:13;2.47;;;2.28;;
14732;SDS011;7457;50.960;6.830;2023-07-31T13:14:39;3.55;;;2.47;;
14732;SDS011;7457;50.960;6.830;2023-07-31T13:17:05;2.58;;;2.38;;
14732;SDS011;7457;50.960;6.830;2023-07-31T13:19:31;3.42;;;2.53;;
14732;SDS011;7457;50.960;6.830;2023-07-31T13:21:56;3.85;;;2.55;;
14732;SDS011;7457;50.960;6.830;2023-07-31T13:24:22;3.92;;;2.50;;
14732;SDS011;7457;50.960;6.830;2023-07-31T13:26:48;2.95;;;2.28;;
14732;SDS011;7457;50.960;6.830;2023-07-31T13:29:13;2.75;;;2.42;;
14732;SDS011;7457;50.960;6.830;2023-07-31T13:31:39;5.05;;;2.22;;
14732;SDS011;7457;50.960;6.830;2023-07-31T13:34:04;3.05;;;2.20;;
14732;SDS011;7457;50.960;6.830;2023-07-31T13:36:30;3.03;;;2.22;;
14732;SDS011;7457;50.960;6.830;2023-07-31T13:38:56;3.53;;;2.35;;
14732;SDS011;7457;50.960;6.830;2023-07-31T13:41:21;2.53;;;2.28;;
14732;SDS011;7457;50.960;6.830;2023-07-31T13:43:47;4.65;;;2.25;;
14732;SDS011;7457;50.960;6.830;2023-07-31T13:46:12;2.60;;;2.00;;
14732;SDS011;7457;50.960;6.830;2023-07-31T13:48:38;2.50;;;2.17;;
14732;SDS011;7457;50.960;6.830;2023-07-31T13:51:04;2.25;;;2.03;;
14732;SDS011;7457;50.960;6.830;2023-07-31T13:53:30;3.03;;;2.00;;
14732;SDS011;7457;50.960;6.830;2023-07-31T13:55:56;2.35;;;1.92;;
14732;SDS011;7457;50.960;6.830;2023-07-31T13:58:21;2.60;;;2.00;;
14732;SDS011;7457;50.960;6.830;2023-07-31T14:00:47;4.15;;;2.25;;
14732;SDS011;7457;50.960;6.830;2023-07-31T14:03:13;3.10;;;2.20;;
14732;SDS011;7457;50.960;6.830;2023-07-31T14:05:38;2.58;;;2.10;;
14732;SDS011;7457;50.960;6.830;2023-07-31T14:08:04;3.13;;;2.45;;
14732;SDS011;7457;50.960;6.830;2023-07-31T14:10:29;2.65;;;2.20;;
14732;SDS011;7457;50.960;6.830;2023-07-31T14:12:55;2.47;;;2.13;;
14732;SDS011;7457;50.960;6.830;2023-07-31T14:15:21;2.90;;;2.40;;
14732;SDS011;7457;50.960;6.830;2023-07-31T14:17:46;3.33;;;2.58;;
14732;SDS011;7457;50.960;6.830;2023-07-31T14:20:12;3.17;;;2.45;;
14732;SDS011;7457;50.960;6.830;2023-07-31T14:22:37;2.85;;;2.22;;
14732;SDS011;7457;50.960;6.830;2023-07-31T14:25:04;4.18;;;2.47;;
14732;SDS011;7457;50.960;6.830;2023-07-31T14:27:30;2.90;;;2.50;;
14732;SDS011;7457;50.960;6.830;2023-07-31T14:29:55;3.75;;;2.92;;
14732;SDS011;7457;50.960;6.830;2023-07-31T14:32:24;3.03;;;2.70;;
14732;SDS011;7457;50.960;6.830;2023-07-31T14:34:50;4.00;;;2.60;;
14732;SDS011;7457;50.960;6.830;2023-07-31T14:37:16;3.88;;;2.80;;
14732;SDS011;7457;50.960;6.830;2023-07-31T14:39:42;3.50;;;2.63;;
14732;SDS011;7457;50.960;6.830;2023-07-31T14:42:08;4.72;;;2.83;;
14732;SDS011;7457;50.960;6.830;2023-07-31T14:44:34;2.85;;;2.60;;
14732;SDS011;7457;50.960;6.830;2023-07-31T14:47:00;3.72;;;3.05;;
14732;SDS011;7457;50.960;6.830;2023-07-31T14:49:25;2.80;;;2.50;;
14732;SDS011;7457;50.960;6.830;2023-07-31T14:51:53;5.88;;;3.95;;
14732;SDS011;7457;50.960;6.830;2023-07-31T14:54:19;5.95;;;3.60;;
14732;SDS011;7457;50.960;6.830;2023-07-31T14:56:44;3.83;;;3.20;;
14732;SDS011;7457;50.960;6.830;2023-07-31T14:59:10;3.70;;;3.10;;
14732;SDS011;7457;50.960;6.830;2023-07-31T15:01:36;4.45;;;3.47;;
14732;SDS011;7457;50.960;6.830;2023-07-31T15:04:02;4.32;;;2.97;;
14732;SDS011;7457;50.960;6.830;2023-07-31T15:06:28;3.85;;;3.42;;
14732;SDS011;7457;50.960;6.830;2023-07-31T15:08:54;4.43;;;3.53;;
14732;SDS011;7457;50.960;6.830;2023-07-31T15:11:19;4.13;;;3.22;;